AirNav  
 
Fuel
  

8F4 Foard County Airport
Crowell, Texas, USA


FAA INFORMATION EFFECTIVE 10 JUNE 2004

Location

FAA Identifier: 8F4
Lat/Long: 33-58-45.303N / 099-42-46.335W
33-58.75505N / 099-42.77225W
33.9792508 / -99.7128708
(estimated)
Elevation: 1479 ft. / 450.8 m (surveyed)
Variation: 08E (1985)
From city: 1 mile E of CROWELL, TX

Airport Operations

Airport use: Open to the public
Sectional chart: DALLAS-FT WORTH
Control tower: no
ARTCC: FORT WORTH CENTER
FSS: FORT WORTH FLIGHT SERVICE STATION [1-800-WX-BRIEF]
NOTAMs facility: FTW (NOTAM-D service available)
Attendance: UNATNDD
Wind indicator: lighted
Segmented circle: yes
Lights: DUSK-DAWN
Beacon: white-green (lighted land airport)
ROTG BCN OTS INDEFLY.

Airport Communications

CTAF: 122.9

Nearby radio navigation aids

VOR radial/distance  VOR name  Freq  Var
GTHr059/33.3GUTHRIE VORTAC114.5010E
CDSr119/36.9CHILDRESS VORTAC117.6010E

 
NDB name  Hdg/Dist  Freq  Var  ID
WILBARGER228/26.123008EVRT ...- .-. -

Airport Services

Parking: tiedowns
Airframe service: NONE
Powerplant service: NONE
Bottled oxygen: NONE
Bulk oxygen: NONE

Runway Information

Runway 17/35

Dimensions: 3200 x 39 ft. / 975 x 12 m
Surface: asphalt, in poor condition
RY PAVEMENT HAS GRASS ENCROACHMENT.
Weight limitations: 
Single wheel: 8000 lbs
Runway edge lights: medium intensity
MIRL OTS INDEFLY.
Runway edge markings: RY MARKINGS FADED.
RY MARKINGS FADED.
RUNWAY 17  RUNWAY 35
Traffic pattern: leftleft
Markings: basic, in poor conditionbasic, in poor condition
Obstructions: 15 ft. road, 490 ft. from runway, 19:1 slope to clearnone
+10 FT TREE 55 FT LEFT 135 FT SOUTH OF THLD.

Airport Operational Statistics

Aircraft operations: avg 42/month
100% transient general aviation

Instrument Procedures

There are no published instrument procedures at 8F4.

Some nearby airports with instrument procedures:

F05 - Wilbarger County Airport (26 nm NE)
3F6 - Dan E Richards Municipal Airport (28 nm W)
60F - Seymour Municipal Airport (30 nm SE)
1O8 - Tipton Municipal Airport (39 nm NE)
KCDS - Childress Municipal Airport (39 nm NW)
 
Loc | Ops | Rwys | IFR | FBO | Links
Com | Nav | Svcs | Stats | Notes
 
Area around 8F4 (Foard County Airport)
 
No photo
 
Airport distance calculator
Flying to Foard County Airport? Find the distance to fly.

From to 8F4

Sunrise and sunset
Times for 29-Jun-2004
 Local
(UTC-5)
 Zulu
(UTC)
Morning civil twilight06:0311:03
Sunrise06:3211:32
Sunset20:5301:53
Evening civil twilight21:2202:22
 
METAR
KF05 
26nm NE 
290744Z AUTO 04003KT 5SM CLR 19/18 A3010 RMK AO1 LTG DSNT NE
KCDS 
39nm NW 
290753Z AUTO 08005KT 10SM BKN025 20/19 A3015 RMK AO2 SLP187 T02000189
KFDR 
43nm NE 
290753Z AUTO 03007KT 8SM CLR 21/21 A3008 RMK AO2 SLP170 T02110206
KLTS 
47nm NE 
290730Z VRB03KT 7SM FEW040 BKN085 22/21 A3012 RMK LAST
TAF
KCDS 
39nm NW 
290536Z 290606 08006KT P6SM SCT010 BKN050 OVC080
TEMPO 0610 3SM -SHRA BR OVC010
FM1000 09006KT 4SM -SHRA BR OVC010
TEMPO 1014 2SM BR OVC006
FM1500 09006KT P6SM SCT020 BKN040
TEMPO 1519 5SM -TSRA BKN020CB
FM1900 10008KT P6SM SCT040 BKN100 PROB30 1923 3SM TSRA OVC030CB
KLTS 
47nm NE 
290101 04008KT 9999 VCTS FEW020 BKN040CB BKN100 QNH3005INS
BECMG 0203 04009KT 9999 NSW FEW020 SCT030 SCT100 QNH3007INS
BECMG 0708 04009KT 8000 BR BKN010 BKN030 QNH3009INS
BECMG 1011 04009KT 2400 -RA BR BKN006 BKN015 QNH3011INS
BECMG 1718 11009KT 4800 -SHRA BKN015 BKN030 QNH3003INS T24/21Z T19/12Z AMD 0200

 
 

Would you like to see your business listed on this page?

 If your business provides an interesting product or service to pilots, flight crews, aircraft, or users of the Foard County Airport, you should consider listing it here.  To start the listing process, click on the button below
 
Add a business
 

Other Pages about Foard County Airport

Add a link
 
Copyright © AirNav, LLC. All rights reserved. Privacy Policy  Contact